createdAt,value
2022-12-31T00:03:00.185Z,89.00
2022-12-31T00:08:08.459Z,88.70
2022-12-31T00:13:15.431Z,89.04
2022-12-31T00:18:21.761Z,88.94
2022-12-31T00:23:29.681Z,88.81
2022-12-31T00:28:37.670Z,88.70
2022-12-31T00:33:45.093Z,88.98
2022-12-31T00:38:55.231Z,88.76
2022-12-31T00:44:02.445Z,88.75
2022-12-31T00:49:09.060Z,88.75
2022-12-31T00:54:17.180Z,88.57
2022-12-31T00:59:23.599Z,89.00
2022-12-31T01:04:29.977Z,88.77
2022-12-31T01:09:37.761Z,89.05
2022-12-31T01:14:44.099Z,89.14
2022-12-31T01:19:50.632Z,89.25
2022-12-31T01:24:58.721Z,89.23
2022-12-31T01:30:05.949Z,89.27
2022-12-31T01:35:12.460Z,89.24
2022-12-31T01:40:21.175Z,89.59
2022-12-31T01:45:28.756Z,89.48
2022-12-31T01:50:38.683Z,89.81
2022-12-31T01:55:52.317Z,89.71
2022-12-31T02:01:00.835Z,89.66
2022-12-31T02:06:16.024Z,89.74
2022-12-31T02:11:30.184Z,89.67
2022-12-31T02:16:46.442Z,89.66
2022-12-31T02:22:05.414Z,89.98
2022-12-31T02:27:21.279Z,89.75
2022-12-31T02:32:40.529Z,89.64
2022-12-31T02:37:54.923Z,89.80
2022-12-31T02:43:01.398Z,90.52
2022-12-31T02:48:38.773Z,90.38
2022-12-31T02:54:26.810Z,90.57
2022-12-31T02:59:57.254Z,90.74
2022-12-31T03:05:06.739Z,90.88
2022-12-31T03:10:13.547Z,90.57
2022-12-31T03:15:22.898Z,90.47
2022-12-31T03:20:52.193Z,90.24
2022-12-31T03:25:59.930Z,89.97
2022-12-31T03:31:07.339Z,89.62
2022-12-31T03:36:17.313Z,89.58
2022-12-31T03:41:24.037Z,89.27
2022-12-31T03:46:30.566Z,89.21
2022-12-31T03:51:38.342Z,89.50
2022-12-31T03:56:45.251Z,89.27
2022-12-31T04:01:51.703Z,89.10
2022-12-31T04:06:59.594Z,89.11
2022-12-31T04:12:07.474Z,89.04
2022-12-31T04:17:13.682Z,89.05
2022-12-31T04:22:21.919Z,89.00
2022-12-31T04:27:28.317Z,88.83
2022-12-31T04:32:34.768Z,89.10
2022-12-31T04:37:42.556Z,89.01
2022-12-31T04:42:48.862Z,88.98
2022-12-31T04:47:55.333Z,89.10
2022-12-31T04:53:03.095Z,88.86
2022-12-31T04:58:09.413Z,88.84
2022-12-31T05:03:15.825Z,88.56
2022-12-31T05:08:23.985Z,88.82
2022-12-31T05:13:33.383Z,88.88
2022-12-31T05:18:40.275Z,88.78
2022-12-31T05:23:48.418Z,88.72
2022-12-31T05:28:55.618Z,88.89
2022-12-31T05:34:01.955Z,89.10
2022-12-31T05:39:09.989Z,89.09
2022-12-31T05:44:16.623Z,89.05
2022-12-31T05:49:23.481Z,89.37
2022-12-31T05:54:31.292Z,89.37
2022-12-31T05:59:37.679Z,89.69
2022-12-31T06:04:44.431Z,89.48
2022-12-31T06:09:52.437Z,89.86
2022-12-31T06:14:58.983Z,89.87
2022-12-31T06:20:12.185Z,89.61
2022-12-31T06:25:21.044Z,89.83
2022-12-31T06:30:27.274Z,90.09
2022-12-31T06:35:33.808Z,90.29
2022-12-31T06:40:41.692Z,90.26
2022-12-31T06:45:48.305Z,90.29
2022-12-31T06:50:55.809Z,90.40
2022-12-31T06:56:08.419Z,90.34
2022-12-31T07:01:38.925Z,90.38
2022-12-31T07:06:50.568Z,90.25
2022-12-31T07:12:08.180Z,90.39
2022-12-31T07:17:39.499Z,90.66
2022-12-31T07:22:47.245Z,90.86
2022-12-31T07:28:16.104Z,91.06
2022-12-31T07:33:53.290Z,91.28
2022-12-31T07:39:07.458Z,91.39
2022-12-31T07:44:35.822Z,91.27
2022-12-31T07:49:46.020Z,90.95
2022-12-31T07:54:52.746Z,91.13
2022-12-31T08:00:10.207Z,91.14
2022-12-31T08:05:28.712Z,91.15
2022-12-31T08:10:44.065Z,91.40
2022-12-31T08:15:53.061Z,91.33
2022-12-31T08:21:15.863Z,91.48
2022-12-31T08:26:35.923Z,90.96
2022-12-31T08:31:54.375Z,90.77
2022-12-31T08:37:06.418Z,90.54
2022-12-31T08:42:27.583Z,90.62
2022-12-31T08:47:44.333Z,90.18
2022-12-31T08:52:51.341Z,89.88
2022-12-31T08:58:20.484Z,89.92
2022-12-31T09:03:38.139Z,89.79
2022-12-31T09:08:52.825Z,89.31
2022-12-31T09:14:27.420Z,89.34
2022-12-31T09:19:35.300Z,89.28
2022-12-31T09:24:42.583Z,89.41
2022-12-31T09:29:59.083Z,89.28
2022-12-31T09:35:21.901Z,89.44
2022-12-31T09:41:10.483Z,88.92
2022-12-31T09:47:08.800Z,88.93
2022-12-31T09:52:24.490Z,88.96
2022-12-31T09:57:42.993Z,88.65
2022-12-31T10:03:18.140Z,88.51
2022-12-31T10:09:01.860Z,88.36
2022-12-31T10:14:31.839Z,88.58
2022-12-31T10:20:33.408Z,88.55
2022-12-31T10:26:18.928Z,88.72
2022-12-31T10:31:48.790Z,87.96
2022-12-31T10:37:00.015Z,88.09
2022-12-31T10:43:07.634Z,87.71
2022-12-31T10:48:58.231Z,87.61
2022-12-31T10:55:07.105Z,87.67
2022-12-31T11:00:23.857Z,87.38
2022-12-31T11:06:20.912Z,87.40
2022-12-31T11:11:42.469Z,87.20
2022-12-31T11:17:12.795Z,87.20
2022-12-31T11:22:42.114Z,87.62
2022-12-31T11:28:24.737Z,87.44
2022-12-31T11:33:50.754Z,87.45
2022-12-31T11:39:31.470Z,87.99
2022-12-31T11:45:04.547Z,88.44
2022-12-31T11:50:43.981Z,88.34
2022-12-31T11:56:04.246Z,88.25
2022-12-31T12:01:17.913Z,88.50
2022-12-31T12:06:31.454Z,88.39
2022-12-31T12:11:41.795Z,89.81
2022-12-31T12:16:48.208Z,91.21
2022-12-31T12:21:54.971Z,92.20
2022-12-31T12:27:03.171Z,92.89
2022-12-31T12:32:25.116Z,93.58
2022-12-31T12:37:35.748Z,94.30
2022-12-31T12:42:52.051Z,94.15
2022-12-31T12:48:02.827Z,94.46
2022-12-31T12:53:24.913Z,94.82
2022-12-31T12:58:50.462Z,95.03
2022-12-31T13:04:40.674Z,94.82
2022-12-31T13:10:16.649Z,94.79
2022-12-31T13:15:32.100Z,95.05
2022-12-31T13:20:46.566Z,94.75
2022-12-31T13:26:07.047Z,94.40
2022-12-31T13:31:23.357Z,93.90
2022-12-31T13:36:33.132Z,93.75
2022-12-31T13:41:45.898Z,93.57
2022-12-31T13:47:01.533Z,93.35
2022-12-31T13:52:26.178Z,93.22
2022-12-31T13:57:44.138Z,92.62
2022-12-31T14:03:08.563Z,92.85
2022-12-31T14:08:15.646Z,92.44
2022-12-31T14:13:48.738Z,92.12
2022-12-31T14:19:08.346Z,91.75
2022-12-31T14:24:26.513Z,91.37
2022-12-31T14:29:41.612Z,90.99
2022-12-31T14:35:01.047Z,90.96
2022-12-31T14:40:24.370Z,90.77
2022-12-31T14:45:47.702Z,90.96
2022-12-31T14:51:00.304Z,90.86
2022-12-31T14:56:28.676Z,90.61
2022-12-31T15:01:45.785Z,90.71
2022-12-31T15:07:01.765Z,90.56
2022-12-31T15:12:32.221Z,90.55
2022-12-31T15:17:54.426Z,90.32
2022-12-31T15:23:02.871Z,90.36
2022-12-31T15:28:24.850Z,90.06
2022-12-31T15:33:35.917Z,90.06
2022-12-31T15:38:46.197Z,90.17
2022-12-31T15:43:56.692Z,89.73
2022-12-31T15:49:11.764Z,89.79
2022-12-31T15:54:31.688Z,89.94
2022-12-31T15:59:38.597Z,89.56
2022-12-31T16:04:47.368Z,89.80
2022-12-31T16:09:59.938Z,89.55
2022-12-31T16:15:08.275Z,89.71
2022-12-31T16:20:30.522Z,89.59
2022-12-31T16:25:39.227Z,89.63
2022-12-31T16:30:45.867Z,89.69
2022-12-31T16:35:58.485Z,89.91
2022-12-31T16:41:20.997Z,90.27
2022-12-31T16:46:33.547Z,90.54
2022-12-31T16:51:41.373Z,90.55
2022-12-31T16:56:50.057Z,90.20
2022-12-31T17:01:58.219Z,90.43
2022-12-31T17:07:39.520Z,90.19
2022-12-31T17:13:26.350Z,90.22
2022-12-31T17:18:22.172Z,90.45
2022-12-31T17:23:33.431Z,90.82
2022-12-31T17:28:50.295Z,90.65
2022-12-31T17:34:23.619Z,90.78
2022-12-31T17:39:47.551Z,90.26
2022-12-31T17:45:00.641Z,90.13
2022-12-31T17:50:25.736Z,90.09
2022-12-31T17:55:32.461Z,89.85
2022-12-31T18:00:40.912Z,89.60
2022-12-31T18:05:47.722Z,89.31
2022-12-31T18:10:56.058Z,89.29
2022-12-31T18:16:03.925Z,88.71
2022-12-31T18:21:18.571Z,88.33
2022-12-31T18:26:26.828Z,88.44
2022-12-31T18:31:34.902Z,88.03
2022-12-31T18:36:41.654Z,87.87
2022-12-31T18:41:51.973Z,87.41
2022-12-31T18:47:01.414Z,87.92
2022-12-31T18:52:14.458Z,87.40
2022-12-31T18:57:21.647Z,87.48
2022-12-31T19:02:30.108Z,87.16
2022-12-31T19:07:36.719Z,87.04
2022-12-31T19:12:43.311Z,86.91
2022-12-31T19:17:51.995Z,86.70
2022-12-31T19:22:58.783Z,86.48
2022-12-31T19:28:08.173Z,86.83
2022-12-31T19:33:18.131Z,86.38
2022-12-31T19:38:29.165Z,86.69
2022-12-31T19:43:36.112Z,86.81
2022-12-31T19:48:44.561Z,86.51
2022-12-31T19:53:52.084Z,86.62
2022-12-31T19:58:58.443Z,86.31
2022-12-31T20:04:06.688Z,86.33
2022-12-31T20:09:14.007Z,85.82
2022-12-31T20:14:20.533Z,86.17
2022-12-31T20:19:28.291Z,85.99
2022-12-31T20:24:34.984Z,86.10
2022-12-31T20:29:41.345Z,86.13
2022-12-31T20:34:49.136Z,85.57
2022-12-31T20:39:55.542Z,86.22
2022-12-31T20:45:02.112Z,85.86
2022-12-31T20:50:12.695Z,85.86
2022-12-31T20:55:19.712Z,85.91
2022-12-31T21:00:26.109Z,85.82
2022-12-31T21:05:34.332Z,85.91
2022-12-31T21:10:40.856Z,85.71
2022-12-31T21:15:50.507Z,85.83
2022-12-31T21:20:58.154Z,85.70
2022-12-31T21:26:04.620Z,85.23
2022-12-31T21:31:14.491Z,85.37
2022-12-31T21:36:24.051Z,85.31
2022-12-31T21:41:49.491Z,85.47
2022-12-31T21:47:39.539Z,85.41
2022-12-31T21:52:48.665Z,85.80
2022-12-31T22:03:28.767Z,85.50
2022-12-31T22:08:37.355Z,85.73
2022-12-31T22:13:44.381Z,85.47
2022-12-31T22:18:52.330Z,85.34
2022-12-31T22:24:00.563Z,85.75
2022-12-31T22:29:07.227Z,85.55
2022-12-31T22:34:13.592Z,85.51
2022-12-31T22:39:44.533Z,85.23
2022-12-31T22:44:48.422Z,85.22
2022-12-31T22:49:55.028Z,85.22
2022-12-31T22:55:02.891Z,85.28
2022-12-31T23:00:15.933Z,85.50
2022-12-31T23:05:22.443Z,85.33
2022-12-31T23:10:47.486Z,85.72
2022-12-31T23:16:10.999Z,85.62
2022-12-31T23:21:36.116Z,85.50
2022-12-31T23:26:44.551Z,85.14
2022-12-31T23:31:51.256Z,85.17
2022-12-31T23:36:58.161Z,85.24
2022-12-31T23:42:06.597Z,85.08
2022-12-31T23:47:13.109Z,84.90
2022-12-31T23:52:19.543Z,84.97
2022-12-31T23:57:27.723Z,85.19
